sensor_id;sensor_type;location;lat;lon;timestamp;temperature;humidity
29417;DHT22;28421;51.030;4.006;2022-08-19T22:20:57;19.80;99.90
29417;DHT22;28421;51.030;4.006;2022-08-19T22:23:23;19.70;99.90
29417;DHT22;28421;51.030;4.006;2022-08-19T22:25:48;19.70;99.90
29417;DHT22;28421;51.030;4.006;2022-08-19T22:28:16;19.70;99.90
29417;DHT22;28421;51.030;4.006;2022-08-19T22:30:44;19.70;99.90
29417;DHT22;28421;51.030;4.006;2022-08-19T22:33:14;19.50;99.90
29417;DHT22;28421;51.030;4.006;2022-08-19T22:35:42;19.30;99.90
29417;DHT22;28421;51.030;4.006;2022-08-19T22:38:09;19.30;99.90
29417;DHT22;28421;51.030;4.006;2022-08-19T22:40:40;19.10;99.90
29417;DHT22;28421;51.030;4.006;2022-08-19T22:43:24;19.10;99.90
29417;DHT22;28421;51.030;4.006;2022-08-19T22:45:52;19.00;99.90
29417;DHT22;28421;51.030;4.006;2022-08-19T22:48:21;19.00;99.90
29417;DHT22;28421;51.030;4.006;2022-08-19T22:50:48;19.00;99.90
29417;DHT22;28421;51.030;4.006;2022-08-19T22:53:35;19.10;99.90
29417;DHT22;28421;51.030;4.006;2022-08-19T22:56:02;19.10;99.90
29417;DHT22;28421;51.030;4.006;2022-08-19T22:58:28;19.10;99.90
29417;DHT22;28421;51.030;4.006;2022-08-19T23:00:55;19.10;99.90
29417;DHT22;28421;51.030;4.006;2022-08-19T23:03:21;19.20;99.90
29417;DHT22;28421;51.030;4.006;2022-08-19T23:05:47;19.00;99.90
29417;DHT22;28421;51.030;4.006;2022-08-19T23:08:13;18.90;99.90
29417;DHT22;28421;51.030;4.006;2022-08-19T23:10:38;19.00;99.90
29417;DHT22;28421;51.030;4.006;2022-08-19T23:13:04;19.00;99.90
29417;DHT22;28421;51.030;4.006;2022-08-19T23:15:31;19.10;99.90
29417;DHT22;28421;51.030;4.006;2022-08-19T23:17:59;19.10;99.90
29417;DHT22;28421;51.030;4.006;2022-08-19T23:20:29;19.20;99.90
29417;DHT22;28421;51.030;4.006;2022-08-19T23:22:56;19.30;99.90
29417;DHT22;28421;51.030;4.006;2022-08-19T23:25:25;19.20;99.90
29417;DHT22;28421;51.030;4.006;2022-08-19T23:27:51;19.10;99.90
29417;DHT22;28421;51.030;4.006;2022-08-19T23:30:39;19.00;99.90
29417;DHT22;28421;51.030;4.006;2022-08-19T23:33:25;19.00;99.90
29417;DHT22;28421;51.030;4.006;2022-08-19T23:36:07;19.00;99.90
29417;DHT22;28421;51.030;4.006;2022-08-19T23:38:34;19.00;99.90
29417;DHT22;28421;51.030;4.006;2022-08-19T23:41:02;18.80;99.90
29417;DHT22;28421;51.030;4.006;2022-08-19T23:43:28;18.70;99.90
29417;DHT22;28421;51.030;4.006;2022-08-19T23:45:56;18.80;99.90
29417;DHT22;28421;51.030;4.006;2022-08-19T23:48:23;18.70;99.90
29417;DHT22;28421;51.030;4.006;2022-08-19T23:50:49;18.60;99.90
29417;DHT22;28421;51.030;4.006;2022-08-19T23:53:17;18.60;99.90
29417;DHT22;28421;51.030;4.006;2022-08-19T23:55:44;18.60;99.90
29417;DHT22;28421;51.030;4.006;2022-08-19T23:58:11;18.50;99.90
